createdAt,value
2023-03-15T00:00:25.953Z,2.50
2023-03-15T00:01:26.038Z,2.53
2023-03-15T00:02:26.165Z,2.58
2023-03-15T00:03:26.162Z,2.62
2023-03-15T00:04:26.268Z,2.65
2023-03-15T00:05:26.311Z,2.65
2023-03-15T00:06:26.413Z,2.66
2023-03-15T00:07:26.472Z,2.65
2023-03-15T00:08:26.542Z,2.66
2023-03-15T00:09:26.656Z,2.65
2023-03-15T00:10:26.740Z,2.66
2023-03-15T00:11:26.822Z,2.66
2023-03-15T00:12:26.924Z,2.65
2023-03-15T00:13:27.032Z,2.66
2023-03-15T00:14:27.116Z,2.68
2023-03-15T00:15:27.319Z,2.68
2023-03-15T00:16:27.238Z,2.66
2023-03-15T00:17:27.286Z,2.68
2023-03-15T00:18:27.387Z,2.73
2023-03-15T00:19:27.480Z,2.73
2023-03-15T00:20:27.491Z,2.74
2023-03-15T00:21:27.606Z,2.74
2023-03-15T00:22:27.653Z,2.73
2023-03-15T00:23:27.743Z,2.71
2023-03-15T00:24:27.837Z,2.73
2023-03-15T00:25:27.877Z,2.76
2023-03-15T00:26:27.976Z,2.74
2023-03-15T00:27:28.047Z,2.73
2023-03-15T00:28:28.146Z,2.74
2023-03-15T00:29:28.232Z,2.71
2023-03-15T00:30:28.278Z,2.71
2023-03-15T00:31:28.379Z,2.68
2023-03-15T00:32:28.478Z,2.66
2023-03-15T00:33:28.541Z,2.68
2023-03-15T00:34:28.653Z,2.68
2023-03-15T00:35:28.729Z,2.66
2023-03-15T00:36:28.828Z,2.65
2023-03-15T00:37:28.902Z,2.65
2023-03-15T00:38:29.014Z,2.63
2023-03-15T00:39:29.089Z,2.63
2023-03-15T00:40:29.148Z,2.63
2023-03-15T00:41:29.237Z,2.63
2023-03-15T00:42:29.312Z,2.61
2023-03-15T00:43:29.379Z,2.61
2023-03-15T00:44:29.466Z,2.61
2023-03-15T00:45:29.539Z,2.59
2023-03-15T00:46:29.793Z,2.59
2023-03-15T00:47:29.732Z,2.58
2023-03-15T00:48:29.846Z,2.53
2023-03-15T00:49:29.930Z,2.50
2023-03-15T00:50:29.994Z,2.51
2023-03-15T00:51:30.062Z,2.58
2023-03-15T00:52:30.166Z,2.58
2023-03-15T00:53:30.246Z,2.61
2023-03-15T00:54:30.362Z,2.58
2023-03-15T00:55:30.414Z,2.56
2023-03-15T00:56:30.517Z,2.61
2023-03-15T00:57:30.601Z,2.63
2023-03-15T00:58:30.695Z,2.61
2023-03-15T00:59:30.798Z,2.63
2023-03-15T01:00:30.861Z,2.66
2023-03-15T01:01:31.060Z,2.68
2023-03-15T01:02:31.056Z,2.66
2023-03-15T01:03:31.103Z,2.66
2023-03-15T01:04:31.205Z,2.71
2023-03-15T01:05:31.278Z,2.76
2023-03-15T01:06:31.370Z,2.79
2023-03-15T01:07:31.445Z,2.77
2023-03-15T01:08:31.530Z,2.77
2023-03-15T01:09:31.607Z,2.79
2023-03-15T01:10:31.683Z,2.77
2023-03-15T01:11:31.772Z,2.77
2023-03-15T01:12:31.867Z,2.80
2023-03-15T01:13:31.916Z,2.81
2023-03-15T01:14:32.025Z,2.86
2023-03-15T01:15:32.059Z,2.87
2023-03-15T01:16:32.224Z,2.89
2023-03-15T01:17:32.246Z,2.89
2023-03-15T01:18:32.357Z,2.92
2023-03-15T01:19:32.434Z,2.90
2023-03-15T01:20:32.515Z,2.94
2023-03-15T01:21:32.571Z,2.90
2023-03-15T01:22:32.641Z,2.92
2023-03-15T01:23:32.713Z,2.92
2023-03-15T01:24:32.825Z,2.92
2023-03-15T01:25:32.863Z,2.90
2023-03-15T01:26:32.971Z,2.90
2023-03-15T01:27:33.044Z,2.90
2023-03-15T01:28:33.137Z,2.97
2023-03-15T01:29:33.219Z,2.97
2023-03-15T01:30:33.292Z,2.95
2023-03-15T01:31:33.437Z,2.98
2023-03-15T01:32:33.466Z,2.98
2023-03-15T01:33:33.525Z,3.01
2023-03-15T01:34:33.629Z,3.02
2023-03-15T01:35:33.699Z,3.02
2023-03-15T01:36:33.806Z,3.04
2023-03-15T01:37:33.850Z,3.05
2023-03-15T01:38:33.923Z,3.05
2023-03-15T01:39:34.039Z,3.07
2023-03-15T01:40:34.071Z,3.08
2023-03-15T01:41:34.134Z,3.05
2023-03-15T01:42:34.237Z,3.10
2023-03-15T01:43:34.292Z,3.13
2023-03-15T01:44:34.410Z,3.15
2023-03-15T01:45:34.474Z,3.15
2023-03-15T01:46:35.060Z,3.16
2023-03-15T01:47:34.631Z,3.19
2023-03-15T01:48:34.713Z,3.19
2023-03-15T01:49:34.792Z,3.22
2023-03-15T01:50:34.847Z,3.23
2023-03-15T01:51:34.981Z,3.22
2023-03-15T01:52:35.080Z,3.26
2023-03-15T01:53:35.122Z,3.28
2023-03-15T01:54:35.223Z,3.30
2023-03-15T01:55:35.268Z,3.31
2023-03-15T01:56:35.348Z,3.28
2023-03-15T01:57:35.430Z,3.26
2023-03-15T01:58:36.862Z,3.28
2023-03-15T01:59:35.639Z,3.26
2023-03-15T02:00:35.763Z,3.26
2023-03-15T02:01:35.774Z,3.28
2023-03-15T02:02:35.847Z,3.33
2023-03-15T02:03:35.923Z,3.34
2023-03-15T02:04:36.053Z,3.34
2023-03-15T02:05:36.073Z,3.44
2023-03-15T02:06:36.147Z,3.46
2023-03-15T02:07:36.233Z,3.45
2023-03-15T02:08:36.336Z,3.45
2023-03-15T02:09:36.444Z,3.49
2023-03-15T02:10:36.522Z,3.53
2023-03-15T02:11:36.581Z,3.56
2023-03-15T02:12:36.655Z,3.54
2023-03-15T02:13:36.738Z,3.53
2023-03-15T02:14:36.829Z,3.54
2023-03-15T02:15:36.867Z,3.54
2023-03-15T02:16:36.948Z,3.57
2023-03-15T02:17:37.017Z,3.54
2023-03-15T02:18:37.097Z,3.53
2023-03-15T02:19:37.211Z,3.54
2023-03-15T02:20:37.279Z,3.57
2023-03-15T02:21:37.353Z,3.57
2023-03-15T02:22:37.454Z,3.59
2023-03-15T02:23:37.535Z,3.60
2023-03-15T02:24:37.646Z,3.60
2023-03-15T02:25:37.713Z,3.62
2023-03-15T02:26:37.797Z,3.63
2023-03-15T02:27:37.945Z,3.60
2023-03-15T02:28:37.963Z,3.57
2023-03-15T02:29:38.052Z,3.63
2023-03-15T02:30:38.142Z,3.67
2023-03-15T02:31:38.380Z,3.68
2023-03-15T02:32:38.283Z,3.63
2023-03-15T02:33:38.334Z,3.64
2023-03-15T02:34:38.457Z,3.68
2023-03-15T02:35:38.554Z,3.68
2023-03-15T02:36:38.609Z,3.67
2023-03-15T02:37:38.683Z,3.67
2023-03-15T02:38:38.771Z,3.71
2023-03-15T02:39:38.841Z,3.72
2023-03-15T02:40:38.920Z,3.72
2023-03-15T02:41:38.997Z,3.71
2023-03-15T02:42:39.087Z,3.74
2023-03-15T02:43:39.162Z,3.72
2023-03-15T02:44:39.304Z,3.72
2023-03-15T02:45:39.337Z,3.74
2023-03-15T02:46:39.431Z,3.71
2023-03-15T02:47:39.526Z,3.70
2023-03-15T02:48:39.594Z,3.63
2023-03-15T02:49:39.699Z,3.62
2023-03-15T02:50:39.790Z,3.54
2023-03-15T02:51:39.868Z,3.50
2023-03-15T02:52:39.959Z,3.44
2023-03-15T02:53:40.054Z,3.37
2023-03-15T02:54:40.153Z,3.33
2023-03-15T02:55:40.205Z,3.25
2023-03-15T02:56:40.331Z,3.17
2023-03-15T02:57:40.362Z,3.15
2023-03-15T02:58:40.462Z,3.08
2023-03-15T02:59:40.539Z,3.04
2023-03-15T03:00:40.631Z,2.95
2023-03-15T03:01:40.709Z,2.90
2023-03-15T03:02:40.838Z,2.87
2023-03-15T03:03:40.884Z,2.83
2023-03-15T03:04:41.022Z,2.79
2023-03-15T03:05:41.063Z,2.74
2023-03-15T03:06:41.167Z,2.76
2023-03-15T03:07:41.235Z,2.73
2023-03-15T03:08:41.340Z,2.69
2023-03-15T03:09:41.451Z,2.69
2023-03-15T03:10:41.519Z,2.65
2023-03-15T03:11:41.614Z,2.65
2023-03-15T03:12:41.676Z,2.65
2023-03-15T03:13:41.760Z,2.66
2023-03-15T03:14:41.842Z,2.68
2023-03-15T03:15:43.976Z,2.69
2023-03-15T03:16:42.051Z,2.69
2023-03-15T03:17:42.068Z,2.73
2023-03-15T03:18:42.208Z,2.73
2023-03-15T03:19:42.286Z,2.73
2023-03-15T03:20:42.359Z,2.74
2023-03-15T03:21:42.421Z,2.74
2023-03-15T03:22:42.509Z,2.74
2023-03-15T03:23:42.579Z,2.74
2023-03-15T03:24:42.673Z,2.73
2023-03-15T03:25:42.743Z,2.74
2023-03-15T03:26:42.815Z,2.74
2023-03-15T03:27:42.890Z,2.73
2023-03-15T03:28:42.983Z,2.74
2023-03-15T03:29:43.071Z,2.73
2023-03-15T03:30:43.190Z,2.74
2023-03-15T03:31:43.201Z,2.76
2023-03-15T03:32:43.317Z,2.76
2023-03-15T03:33:43.365Z,2.77
2023-03-15T03:34:43.473Z,2.79
2023-03-15T03:35:43.550Z,2.79
2023-03-15T03:36:43.597Z,2.81
2023-03-15T03:37:43.661Z,2.83
2023-03-15T03:38:43.763Z,2.83
2023-03-15T03:39:43.851Z,2.84
2023-03-15T03:40:43.908Z,2.84
2023-03-15T03:41:43.976Z,2.84
2023-03-15T03:42:44.051Z,2.87
2023-03-15T03:43:44.147Z,2.87
2023-03-15T03:44:44.225Z,2.90
2023-03-15T03:45:44.340Z,2.92
2023-03-15T03:46:44.399Z,2.95
2023-03-15T03:47:44.491Z,2.94
2023-03-15T03:48:44.571Z,2.97
2023-03-15T03:49:44.682Z,2.95
2023-03-15T03:50:44.744Z,2.95
2023-03-15T03:51:44.854Z,2.97
2023-03-15T03:52:44.930Z,2.97
2023-03-15T03:53:45.036Z,2.97
2023-03-15T03:54:45.134Z,2.95
2023-03-15T03:55:45.184Z,2.95
2023-03-15T03:56:45.274Z,2.90
2023-03-15T03:57:45.370Z,2.94
2023-03-15T03:58:45.456Z,2.94
2023-03-15T03:59:45.566Z,2.94
2023-03-15T04:00:45.620Z,2.94
2023-03-15T04:01:45.704Z,2.92
2023-03-15T04:02:45.884Z,2.94
2023-03-15T04:03:45.862Z,2.95
2023-03-15T04:04:46.016Z,2.98
2023-03-15T04:05:46.043Z,2.99
2023-03-15T04:06:46.254Z,3.01
2023-03-15T04:07:46.235Z,3.01
2023-03-15T04:08:46.336Z,3.02
2023-03-15T04:09:46.440Z,3.01
2023-03-15T04:10:46.506Z,3.01
2023-03-15T04:11:46.603Z,2.99
2023-03-15T04:12:46.687Z,3.01
2023-03-15T04:13:46.773Z,2.99
2023-03-15T04:14:46.868Z,2.99
2023-03-15T04:15:46.978Z,3.01
2023-03-15T04:16:47.049Z,3.01
2023-03-15T04:17:47.146Z,3.04
2023-03-15T04:18:47.213Z,3.05
2023-03-15T04:19:47.331Z,3.07
2023-03-15T04:20:47.404Z,3.05
2023-03-15T04:21:47.833Z,3.05
2023-03-15T04:22:47.551Z,3.07
2023-03-15T04:23:47.647Z,3.07
2023-03-15T04:24:47.894Z,3.08
2023-03-15T04:25:47.803Z,3.08
2023-03-15T04:26:47.882Z,3.08
2023-03-15T04:27:47.958Z,3.10
2023-03-15T04:28:48.031Z,3.10
2023-03-15T04:29:48.149Z,3.12
2023-03-15T04:30:48.239Z,3.16
2023-03-15T04:31:48.304Z,3.15
2023-03-15T04:32:48.398Z,3.15
2023-03-15T04:33:48.480Z,3.15
2023-03-15T04:34:48.577Z,3.16
2023-03-15T04:35:48.701Z,3.15
2023-03-15T04:36:48.736Z,3.16
2023-03-15T04:37:48.833Z,3.16
2023-03-15T04:38:48.910Z,3.17
2023-03-15T04:39:49.026Z,3.17
2023-03-15T04:40:49.070Z,3.19
2023-03-15T04:41:49.158Z,3.19
2023-03-15T04:42:49.240Z,3.20
2023-03-15T04:43:49.335Z,3.20
2023-03-15T04:44:49.412Z,3.19
2023-03-15T04:45:49.507Z,3.17
2023-03-15T04:46:49.610Z,3.19
2023-03-15T04:47:49.659Z,3.19
2023-03-15T04:48:49.722Z,3.20
2023-03-15T04:49:49.843Z,3.22
2023-03-15T04:50:49.905Z,3.22
2023-03-15T04:51:49.994Z,3.23
2023-03-15T04:52:50.056Z,3.23
2023-03-15T04:53:50.151Z,3.22
2023-03-15T04:54:50.250Z,3.23
2023-03-15T04:55:50.322Z,3.22
2023-03-15T04:56:50.390Z,3.20
2023-03-15T04:57:50.470Z,3.20
2023-03-15T04:58:50.532Z,3.17
2023-03-15T04:59:50.661Z,3.13
2023-03-15T05:00:50.758Z,3.10
2023-03-15T05:01:50.850Z,3.08
2023-03-15T05:02:50.890Z,3.12
2023-03-15T05:03:50.985Z,3.07
2023-03-15T05:04:51.068Z,3.02
2023-03-15T05:05:51.157Z,2.86
2023-03-15T05:06:51.241Z,2.81
2023-03-15T05:07:51.332Z,2.74
2023-03-15T05:08:51.398Z,2.68
2023-03-15T05:09:51.526Z,2.68
2023-03-15T05:10:51.560Z,2.73
2023-03-15T05:11:51.669Z,2.74
2023-03-15T05:12:51.770Z,2.74
2023-03-15T05:13:51.858Z,2.71
2023-03-15T05:14:54.171Z,2.71
2023-03-15T05:15:52.047Z,2.66
2023-03-15T05:16:52.121Z,2.68
2023-03-15T05:17:52.192Z,2.68
2023-03-15T05:18:52.283Z,2.66
2023-03-15T05:19:52.380Z,2.68
2023-03-15T05:20:52.436Z,2.71
2023-03-15T05:21:52.520Z,2.71
2023-03-15T05:22:52.567Z,2.71
2023-03-15T05:23:52.671Z,2.69
2023-03-15T05:24:52.750Z,2.73
2023-03-15T05:25:52.834Z,2.68
2023-03-15T05:26:52.887Z,2.69
2023-03-15T05:27:53.044Z,2.74
2023-03-15T05:28:53.087Z,2.73
2023-03-15T05:29:53.201Z,2.68
2023-03-15T05:30:53.260Z,2.66
2023-03-15T05:31:53.419Z,2.65
2023-03-15T05:32:53.470Z,2.65
2023-03-15T05:33:53.548Z,2.61
2023-03-15T05:34:53.654Z,2.61
2023-03-15T05:35:53.754Z,2.62
2023-03-15T05:36:53.832Z,2.62
2023-03-15T05:37:53.928Z,2.65
2023-03-15T05:38:54.011Z,2.65
2023-03-15T05:39:54.112Z,2.65
2023-03-15T05:40:54.159Z,2.63
2023-03-15T05:41:54.260Z,2.65
2023-03-15T05:42:54.338Z,2.62
2023-03-15T05:43:54.413Z,2.62
2023-03-15T05:44:54.516Z,2.65
2023-03-15T05:45:54.626Z,2.66
2023-03-15T05:46:54.659Z,2.68
2023-03-15T05:47:54.760Z,2.68
2023-03-15T05:48:54.856Z,2.68
2023-03-15T05:49:54.947Z,2.71
2023-03-15T05:50:54.980Z,2.73
2023-03-15T05:51:55.054Z,2.73
2023-03-15T05:52:55.148Z,2.74
2023-03-15T05:53:55.222Z,2.76
2023-03-15T05:54:55.286Z,2.76
2023-03-15T05:55:55.365Z,2.77
2023-03-15T05:56:55.422Z,2.83
2023-03-15T05:57:55.489Z,2.84
2023-03-15T05:58:55.575Z,2.87
2023-03-15T05:59:55.737Z,2.86
2023-03-15T06:00:55.755Z,2.87
2023-03-15T06:01:55.818Z,2.89
2023-03-15T06:02:55.970Z,2.90
2023-03-15T06:03:56.062Z,2.97
2023-03-15T06:04:56.111Z,2.98
2023-03-15T06:05:56.176Z,2.94
2023-03-15T06:06:56.422Z,2.87
2023-03-15T06:07:56.367Z,2.87
2023-03-15T06:08:56.422Z,2.84
2023-03-15T06:09:56.546Z,2.87
2023-03-15T06:10:56.623Z,2.89
2023-03-15T06:11:56.693Z,2.95
2023-03-15T06:12:56.776Z,2.95
2023-03-15T06:13:56.889Z,2.97
2023-03-15T06:14:56.983Z,2.99
2023-03-15T06:15:57.077Z,3.01
2023-03-15T06:16:57.247Z,3.05
2023-03-15T06:17:57.257Z,3.07
2023-03-15T06:18:57.326Z,3.07
2023-03-15T06:19:57.450Z,3.08
2023-03-15T06:20:57.483Z,3.02
2023-03-15T06:21:57.585Z,3.02
2023-03-15T06:22:57.673Z,2.99
2023-03-15T06:23:57.777Z,3.01
2023-03-15T06:24:57.854Z,3.04
2023-03-15T06:25:57.910Z,3.07
2023-03-15T06:26:58.017Z,3.07
2023-03-15T06:27:58.092Z,3.10
2023-03-15T06:28:58.149Z,3.12
2023-03-15T06:29:58.254Z,3.16
2023-03-15T06:30:58.395Z,3.19
2023-03-15T06:31:58.429Z,3.26
2023-03-15T06:32:58.542Z,3.35
2023-03-15T06:33:58.570Z,3.41
2023-03-15T06:34:58.649Z,3.41
2023-03-15T06:35:58.768Z,3.41
2023-03-15T06:36:58.820Z,3.39
2023-03-15T06:37:58.918Z,3.39
2023-03-15T06:38:58.979Z,3.41
2023-03-15T06:39:59.092Z,3.42
2023-03-15T06:40:59.134Z,3.49
2023-03-15T06:41:59.223Z,3.53
2023-03-15T06:42:59.292Z,3.59
2023-03-15T06:43:59.482Z,3.64
2023-03-15T06:44:59.455Z,3.68
2023-03-15T06:45:59.622Z,3.72
2023-03-15T06:46:59.616Z,3.72
2023-03-15T06:47:59.686Z,3.74
2023-03-15T06:49:01.417Z,3.75
2023-03-15T06:49:59.865Z,3.77
2023-03-15T06:50:59.950Z,3.72
2023-03-15T06:52:00.024Z,3.68
2023-03-15T06:53:00.149Z,3.68
2023-03-15T06:54:00.192Z,3.70
2023-03-15T06:55:00.297Z,3.70
2023-03-15T06:56:00.358Z,3.70
2023-03-15T06:57:00.427Z,3.70
2023-03-15T06:58:00.517Z,3.68
2023-03-15T06:59:00.578Z,3.64
2023-03-15T07:00:00.698Z,3.60
2023-03-15T07:01:00.747Z,3.56
2023-03-15T07:02:00.853Z,3.53
2023-03-15T07:03:01.005Z,3.50
2023-03-15T07:04:01.037Z,3.49
2023-03-15T07:05:01.113Z,3.49
2023-03-15T07:06:01.187Z,3.49
2023-03-15T07:07:01.270Z,3.50
2023-03-15T07:08:01.351Z,3.49
2023-03-15T07:09:01.440Z,3.52
2023-03-15T07:10:01.557Z,3.53
2023-03-15T07:11:01.586Z,3.52
2023-03-15T07:12:01.702Z,3.52
2023-03-15T07:13:01.770Z,3.50
2023-03-15T07:14:01.850Z,3.49
2023-03-15T07:15:01.965Z,3.49
2023-03-15T07:16:02.103Z,3.49
2023-03-15T07:17:02.076Z,3.49
2023-03-15T07:18:02.182Z,3.44
2023-03-15T07:19:02.253Z,3.41
2023-03-15T07:20:02.358Z,3.37
2023-03-15T07:21:02.416Z,3.37
2023-03-15T07:22:02.509Z,3.35
2023-03-15T07:23:02.564Z,3.34
2023-03-15T07:24:02.646Z,3.34
2023-03-15T07:25:02.744Z,3.33
2023-03-15T07:26:02.802Z,3.34
2023-03-15T07:27:02.901Z,3.34
2023-03-15T07:28:02.974Z,3.30
2023-03-15T07:29:03.089Z,3.30
2023-03-15T07:30:03.167Z,3.30
2023-03-15T07:31:03.202Z,3.34
2023-03-15T07:32:03.310Z,3.30
2023-03-15T07:33:03.458Z,3.34
2023-03-15T07:34:03.467Z,3.30
2023-03-15T07:35:03.572Z,3.31
2023-03-15T07:36:03.743Z,3.33
2023-03-15T07:37:03.694Z,3.33
2023-03-15T07:38:03.767Z,3.31
2023-03-15T07:39:03.865Z,3.31
2023-03-15T07:40:03.948Z,3.33
2023-03-15T07:41:03.995Z,3.33
2023-03-15T07:42:04.080Z,3.30
2023-03-15T07:43:04.175Z,3.28
2023-03-15T07:44:04.282Z,3.30
2023-03-15T07:45:04.359Z,3.33
2023-03-15T07:46:04.433Z,3.33
2023-03-15T07:47:04.508Z,3.33
2023-03-15T07:48:04.584Z,3.33
2023-03-15T07:49:04.666Z,3.34
2023-03-15T07:50:04.787Z,3.35
2023-03-15T07:51:04.839Z,3.37
2023-03-15T07:52:04.928Z,3.41
2023-03-15T07:53:05.075Z,3.44
2023-03-15T07:54:05.080Z,3.44
2023-03-15T07:55:05.326Z,3.49
2023-03-15T07:56:05.264Z,3.49
2023-03-15T07:57:05.335Z,3.52
2023-03-15T07:58:05.412Z,3.56
2023-03-15T07:59:05.503Z,3.62
2023-03-15T08:00:05.597Z,3.67
2023-03-15T08:01:05.669Z,3.71
2023-03-15T08:02:05.826Z,3.72
2023-03-15T08:03:05.876Z,3.78
2023-03-15T08:04:05.899Z,3.81
2023-03-15T08:05:06.010Z,3.82
2023-03-15T08:06:06.048Z,3.86
2023-03-15T08:07:06.148Z,3.86
2023-03-15T08:08:06.217Z,3.92
2023-03-15T08:09:06.304Z,3.95
2023-03-15T08:10:06.398Z,4.02
2023-03-15T08:11:06.433Z,4.10
2023-03-15T08:12:06.485Z,4.13
2023-03-15T08:13:06.571Z,4.11
2023-03-15T08:14:06.651Z,4.11
2023-03-15T08:15:06.752Z,4.17
2023-03-15T08:16:06.873Z,4.18
2023-03-15T08:17:06.879Z,4.21
2023-03-15T08:18:06.960Z,4.26
2023-03-15T08:19:07.033Z,4.35
2023-03-15T08:20:07.145Z,4.46
2023-03-15T08:21:07.232Z,4.56
2023-03-15T08:22:07.325Z,4.64
2023-03-15T08:23:07.406Z,4.64
2023-03-15T08:24:07.488Z,4.64
2023-03-15T08:25:07.611Z,4.57
2023-03-15T08:26:07.679Z,4.57
2023-03-15T08:27:07.775Z,4.47
2023-03-15T08:28:07.834Z,4.44
2023-03-15T08:29:07.938Z,4.38
2023-03-15T08:30:08.016Z,4.38
2023-03-15T08:31:08.088Z,4.36
2023-03-15T08:32:08.334Z,4.36
2023-03-15T08:33:08.396Z,4.36
2023-03-15T08:34:08.344Z,4.38
2023-03-15T08:35:08.450Z,4.42
2023-03-15T08:36:08.552Z,4.44
2023-03-15T08:37:08.598Z,4.43
2023-03-15T08:38:08.676Z,4.35
2023-03-15T08:39:08.734Z,4.39
2023-03-15T08:40:08.835Z,4.39
2023-03-15T08:41:08.897Z,4.43
2023-03-15T08:42:08.970Z,4.49
2023-03-15T08:43:09.104Z,4.49
2023-03-15T08:44:09.132Z,4.51
2023-03-15T08:45:09.239Z,4.53
2023-03-15T08:46:09.339Z,4.54
2023-03-15T08:47:09.370Z,4.61
2023-03-15T08:48:09.440Z,4.74
2023-03-15T08:49:09.523Z,4.88
2023-03-15T08:50:09.631Z,5.32
2023-03-15T08:51:09.690Z,6.60
2023-03-15T08:52:09.767Z,6.68
2023-03-15T08:53:09.820Z,7.74
2023-03-15T08:54:09.901Z,8.14
2023-03-15T08:55:10.168Z,7.92
2023-03-15T08:56:10.118Z,8.52
2023-03-15T08:57:10.113Z,8.58
2023-03-15T08:58:10.185Z,8.61
2023-03-15T08:59:11.414Z,8.27
2023-03-15T09:00:10.491Z,7.84
2023-03-15T09:01:10.400Z,7.44
2023-03-15T09:02:10.550Z,7.27
2023-03-15T09:03:10.571Z,7.14
2023-03-15T09:04:10.702Z,6.94
2023-03-15T09:05:13.353Z,6.79
2023-03-15T09:06:10.851Z,6.55
2023-03-15T09:07:10.932Z,6.42
2023-03-15T09:08:10.996Z,6.36
2023-03-15T09:09:11.090Z,6.38
2023-03-15T09:10:11.194Z,6.30
2023-03-15T09:11:11.258Z,6.30
2023-03-15T09:12:11.313Z,6.27
2023-03-15T09:13:11.392Z,6.19
2023-03-15T09:14:11.477Z,6.06
2023-03-15T09:15:11.545Z,5.96
2023-03-15T09:16:11.662Z,5.92
2023-03-15T09:17:11.913Z,5.80
2023-03-15T09:18:11.821Z,5.70
2023-03-15T09:19:11.901Z,5.63
2023-03-15T09:20:11.974Z,5.55
2023-03-15T09:21:12.080Z,5.52
2023-03-15T09:22:23.485Z,5.48
2023-03-15T09:23:12.230Z,5.51
2023-03-15T09:24:12.295Z,5.62
2023-03-15T09:25:12.370Z,5.60
2023-03-15T09:26:12.467Z,5.60
2023-03-15T09:27:12.512Z,5.63
2023-03-15T09:28:12.609Z,5.75
2023-03-15T09:29:12.681Z,5.65
2023-03-15T09:30:12.771Z,5.62
2023-03-15T09:31:12.938Z,5.59
2023-03-15T09:32:12.932Z,5.58
2023-03-15T09:33:12.996Z,6.63
2023-03-15T09:34:13.111Z,8.03
2023-03-15T09:35:13.143Z,8.47
2023-03-15T09:36:13.286Z,8.31
2023-03-15T09:37:13.307Z,8.63
2023-03-15T09:38:13.451Z,9.45
2023-03-15T09:39:13.513Z,10.36
2023-03-15T09:40:13.577Z,11.28
2023-03-15T09:41:13.700Z,11.17
2023-03-15T09:42:13.746Z,12.21
2023-03-15T09:43:13.808Z,12.71
2023-03-15T09:44:13.900Z,13.01
2023-03-15T09:45:13.983Z,12.43
2023-03-15T09:46:14.123Z,11.85
2023-03-15T09:47:14.132Z,11.19
2023-03-15T09:48:14.240Z,11.90
2023-03-15T09:49:14.311Z,12.58
2023-03-15T09:50:14.390Z,12.56
2023-03-15T09:51:14.500Z,12.76
2023-03-15T09:52:14.575Z,13.24
2023-03-15T09:53:14.659Z,13.04
2023-03-15T09:54:14.774Z,13.35
2023-03-15T09:55:14.851Z,13.27
2023-03-15T09:56:14.945Z,12.73
2023-03-15T09:57:15.031Z,11.77
2023-03-15T09:58:15.101Z,10.28
2023-03-15T09:59:15.168Z,9.55
2023-03-15T10:00:15.272Z,9.50
2023-03-15T10:01:15.435Z,9.63
2023-03-15T10:02:15.425Z,9.34
2023-03-15T10:03:15.536Z,8.89
2023-03-15T10:04:15.606Z,8.55
2023-03-15T10:05:15.665Z,9.12
2023-03-15T10:06:15.758Z,9.93
2023-03-15T10:07:15.822Z,10.65
2023-03-15T10:08:15.920Z,10.58
2023-03-15T10:09:15.990Z,11.08
2023-03-15T10:10:16.075Z,11.08
2023-03-15T10:11:16.179Z,11.11
2023-03-15T10:12:16.265Z,10.44
2023-03-15T10:13:16.352Z,10.32
2023-03-15T10:14:16.457Z,10.78
2023-03-15T10:15:16.520Z,10.81
2023-03-15T10:16:16.697Z,11.69
2023-03-15T10:17:16.672Z,11.56
2023-03-15T10:18:16.760Z,11.78
2023-03-15T10:19:16.844Z,11.75
2023-03-15T10:20:16.928Z,12.07
2023-03-15T10:21:17.009Z,12.34
2023-03-15T10:22:17.065Z,12.49
2023-03-15T10:23:17.157Z,12.79
2023-03-15T10:24:17.231Z,13.14
2023-03-15T10:25:17.310Z,13.36
2023-03-15T10:26:17.439Z,13.32
2023-03-15T10:27:17.490Z,13.44
2023-03-15T10:28:17.546Z,12.84
2023-03-15T10:29:17.622Z,12.37
2023-03-15T10:30:17.718Z,11.75
2023-03-15T10:31:22.884Z,11.05
2023-03-15T10:32:17.925Z,10.49
2023-03-15T10:33:17.980Z,10.01
2023-03-15T10:34:18.052Z,9.92
2023-03-15T10:35:18.132Z,10.16
2023-03-15T10:36:18.307Z,10.24
2023-03-15T10:37:18.306Z,10.20
2023-03-15T10:38:18.389Z,10.26
2023-03-15T10:39:18.471Z,10.10
2023-03-15T10:40:18.556Z,10.06
2023-03-15T10:41:28.523Z,9.74
2023-03-15T10:42:18.729Z,9.88
2023-03-15T10:43:18.777Z,9.92
2023-03-15T10:44:18.859Z,9.89
2023-03-15T10:45:18.904Z,9.77
2023-03-15T10:46:19.063Z,9.85
2023-03-15T10:47:24.072Z,9.95
2023-03-15T10:48:19.156Z,9.98
2023-03-15T10:49:19.219Z,10.16
2023-03-15T10:50:19.358Z,10.14
2023-03-15T10:51:19.399Z,10.11
2023-03-15T10:52:19.490Z,9.95
2023-03-15T10:53:19.559Z,9.85
2023-03-15T10:54:19.655Z,9.63
2023-03-15T10:55:19.717Z,9.41
2023-03-15T10:56:19.803Z,9.13
2023-03-15T10:57:19.857Z,9.00
2023-03-15T10:58:19.928Z,8.93
2023-03-15T10:59:19.989Z,8.88
2023-03-15T11:00:20.219Z,8.97
2023-03-15T11:01:20.194Z,9.10
2023-03-15T11:02:20.244Z,9.24
2023-03-15T11:03:20.304Z,9.32
2023-03-15T11:04:20.432Z,9.37
2023-03-15T11:05:20.497Z,9.40
2023-03-15T11:06:20.580Z,9.32
2023-03-15T11:07:20.637Z,9.37
2023-03-15T11:08:20.720Z,9.48
2023-03-15T11:09:20.762Z,9.68
2023-03-15T11:10:20.859Z,9.89
2023-03-15T11:11:20.927Z,10.04
2023-03-15T11:12:20.991Z,10.13
2023-03-15T11:13:21.051Z,10.25
2023-03-15T11:14:21.140Z,10.25
2023-03-15T11:15:21.236Z,10.18
2023-03-15T11:16:21.358Z,10.17
2023-03-15T11:17:21.383Z,10.18
2023-03-15T11:18:21.487Z,10.07
2023-03-15T11:19:21.557Z,9.92
2023-03-15T11:20:21.642Z,9.92
2023-03-15T11:21:21.730Z,10.02
2023-03-15T11:22:21.801Z,10.10
2023-03-15T11:23:21.877Z,10.26
2023-03-15T11:24:22.016Z,10.43
2023-03-15T11:25:24.876Z,10.60
2023-03-15T11:26:31.944Z,10.72
2023-03-15T11:27:22.218Z,10.65
2023-03-15T11:28:22.301Z,10.46
2023-03-15T11:29:22.383Z,10.39
2023-03-15T11:30:22.453Z,10.17
2023-03-15T11:31:22.581Z,9.92
2023-03-15T11:32:22.605Z,9.67
2023-03-15T11:33:22.652Z,9.45
2023-03-15T11:34:22.762Z,9.34
2023-03-15T11:35:22.948Z,9.20
2023-03-15T11:36:22.918Z,8.96
2023-03-15T11:37:23.002Z,8.82
2023-03-15T11:38:23.089Z,8.82
2023-03-15T11:39:23.660Z,8.94
2023-03-15T11:40:23.291Z,9.01
2023-03-15T11:41:23.399Z,9.20
2023-03-15T11:42:24.394Z,9.38
2023-03-15T11:43:23.496Z,9.49
2023-03-15T11:44:23.605Z,9.52
2023-03-15T11:45:23.773Z,9.56
2023-03-15T11:46:23.782Z,9.65
2023-03-15T11:47:23.841Z,9.78
2023-03-15T11:48:23.916Z,9.89
2023-03-15T11:49:23.996Z,9.95
2023-03-15T11:50:24.137Z,10.06
2023-03-15T11:51:24.197Z,10.13
2023-03-15T11:52:24.269Z,10.22
2023-03-15T11:53:24.312Z,10.34
2023-03-15T11:54:24.399Z,10.35
2023-03-15T11:55:24.600Z,10.36
2023-03-15T11:56:24.560Z,10.24
2023-03-15T11:57:24.607Z,10.09
2023-03-15T11:58:24.699Z,9.92
2023-03-15T11:59:24.772Z,9.75
2023-03-15T12:00:24.859Z,9.68
2023-03-15T12:01:24.932Z,9.59
2023-03-15T12:02:25.035Z,9.56
2023-03-15T12:03:25.135Z,9.74
2023-03-15T12:04:25.184Z,9.89
2023-03-15T12:05:25.200Z,9.98
2023-03-15T12:06:25.344Z,10.11
2023-03-15T12:07:25.404Z,10.20
2023-03-15T12:08:25.472Z,10.14
2023-03-15T12:09:25.564Z,10.09
2023-03-15T12:10:25.668Z,10.04
2023-03-15T12:11:25.747Z,10.10
2023-03-15T12:12:25.909Z,10.11
2023-03-15T12:13:25.860Z,10.07
2023-03-15T12:14:25.925Z,10.02
2023-03-15T12:15:26.090Z,9.92
2023-03-15T12:16:26.136Z,9.80
2023-03-15T12:17:26.171Z,9.75
2023-03-15T12:18:26.257Z,9.77
2023-03-15T12:19:26.342Z,9.83
2023-03-15T12:20:26.428Z,9.85
2023-03-15T12:21:26.529Z,9.73
2023-03-15T12:22:26.567Z,9.70
2023-03-15T12:23:26.667Z,9.68
2023-03-15T12:24:26.752Z,9.62
2023-03-15T12:25:26.846Z,9.60
2023-03-15T12:26:26.940Z,9.63
2023-03-15T12:27:27.067Z,9.62
2023-03-15T12:28:27.075Z,9.62
2023-03-15T12:29:27.168Z,9.65
2023-03-15T12:30:27.246Z,9.63
2023-03-15T12:31:27.359Z,9.63
2023-03-15T12:32:27.408Z,9.62
2023-03-15T12:33:27.477Z,9.60
2023-03-15T12:34:27.569Z,9.56
2023-03-15T12:35:27.647Z,9.62
2023-03-15T12:36:27.735Z,9.65
2023-03-15T12:37:27.793Z,9.59
2023-03-15T12:38:27.884Z,9.55
2023-03-15T12:39:27.968Z,9.44
2023-03-15T12:40:28.024Z,9.41
2023-03-15T12:41:28.134Z,9.42
2023-03-15T12:42:28.181Z,9.42
2023-03-15T12:43:28.282Z,9.41
2023-03-15T12:44:28.371Z,9.48
2023-03-15T12:45:28.470Z,9.53
2023-03-15T12:46:28.558Z,9.60
2023-03-15T12:47:28.596Z,9.68
2023-03-15T12:48:28.662Z,9.70
2023-03-15T12:49:28.792Z,9.65
2023-03-15T12:50:28.811Z,9.68
2023-03-15T12:51:28.944Z,9.68
2023-03-15T12:52:29.004Z,9.80
2023-03-15T12:53:29.132Z,9.88
2023-03-15T12:54:29.165Z,9.98
2023-03-15T12:55:29.268Z,10.07
2023-03-15T12:56:29.357Z,10.10
2023-03-15T12:57:30.252Z,9.99
2023-03-15T12:58:29.469Z,9.89
2023-03-15T12:59:29.556Z,9.88
2023-03-15T13:00:29.642Z,9.91
2023-03-15T13:01:29.809Z,9.98
2023-03-15T13:02:42.291Z,10.09
2023-03-15T13:03:29.945Z,10.17
2023-03-15T13:04:29.985Z,10.16
2023-03-15T13:05:30.066Z,10.25
2023-03-15T13:06:30.165Z,10.29
2023-03-15T13:07:31.709Z,10.32
2023-03-15T13:08:30.309Z,10.39
2023-03-15T13:09:30.382Z,10.46
2023-03-15T13:10:31.375Z,10.44
2023-03-15T13:11:30.577Z,10.42
2023-03-15T13:12:30.639Z,10.43
2023-03-15T13:13:30.766Z,10.44
2023-03-15T13:14:30.805Z,10.55
2023-03-15T13:15:30.885Z,10.57